Time;durP1;ratioP1;P1;durP2;ratioP2;P2;SDS_P1;SDS_P2;PMS_P1;PMS_P2;Temp;Humidity;BMP_temperature;BMP_pressure;BME280_temperature;BME280_humidity;BME280_pressure;Samples;Min_cycle;Max_cycle;Signal;HPM_P1;HPM_P2
2021/12/10 00:01:25;;;;;;;7.43;3.05;;;;;;;2.38;100.00;98390.38;4996187;28;20041;-73
2021/12/10 00:03:53;;;;;;;6.40;3.22;;;;;;;2.50;100.00;98373.72;4995830;28;20041;-74
2021/12/10 00:06:27;;;;;;;6.88;2.63;;;;;;;2.52;100.00;98366.78;4996073;28;20136;-74
2021/12/10 00:08:56;;;;;;;6.57;2.58;;;;;;;2.38;100.00;98354.25;4996036;28;20239;-72
2021/12/10 00:11:33;;;;;;;7.78;2.33;;;;;;;2.32;100.00;98351.81;4995985;28;20116;-73
2021/12/10 00:14:00;;;;;;;5.93;3.00;;;;;;;2.30;100.00;98343.28;4995801;28;20167;-73
2021/12/10 00:16:26;;;;;;;7.03;3.03;;;;;;;2.35;100.00;98344.00;4994284;28;20061;-72
2021/12/10 00:18:57;;;;;;;5.85;2.78;;;;;;;2.46;100.00;98343.72;4995592;28;20389;-74
2021/12/10 00:21:26;;;;;;;6.13;2.80;;;;;;;2.44;100.00;98341.19;4995890;28;20366;-72
2021/12/10 00:23:54;;;;;;;7.32;2.58;;;;;;;2.37;100.00;98331.91;4995838;28;20027;-73
2021/12/10 00:26:23;;;;;;;6.45;3.13;;;;;;;2.37;100.00;98338.78;4995429;28;20497;-74
2021/12/10 00:28:50;;;;;;;7.85;3.08;;;;;;;2.37;100.00;98319.00;4995649;28;20064;-75
2021/12/10 00:32:00;;;;;;;6.72;3.20;;;;;;;2.47;100.00;98319.59;4995634;28;20089;-74
2021/12/10 00:34:19;;;;;;;6.72;2.83;;;;;;;2.54;100.00;98311.63;4992498;28;20081;-74
2021/12/10 00:36:46;;;;;;;6.50;2.60;;;;;;;2.51;100.00;98309.13;4995199;28;20023;-74
2021/12/10 00:39:16;;;;;;;5.68;2.88;;;;;;;2.50;100.00;98309.19;4995253;28;20030;-74
2021/12/10 00:41:42;;;;;;;8.63;2.83;;;;;;;2.56;100.00;98296.09;4995203;28;20165;-74
2021/12/10 00:44:08;;;;;;;6.97;2.85;;;;;;;2.53;100.00;98298.75;4995381;28;20046;-74
2021/12/10 00:46:34;;;;;;;;;;;;;;;2.57;100.00;98287.47;4995781;28;20040;-73
2021/12/10 00:49:00;;;;;;;7.00;2.97;;;;;;;2.57;100.00;98285.72;4995521;28;19956;-74
2021/12/10 00:51:26;;;;;;;7.25;2.55;;;;;;;2.58;100.00;98286.56;4995597;28;20031;-75
2021/12/10 00:53:52;;;;;;;7.93;3.53;;;;;;;2.65;100.00;98277.72;4993895;28;20092;-74
2021/12/10 00:56:18;;;;;;;6.07;2.63;;;;;;;2.76;100.00;98282.59;4995287;28;20096;-74
2021/12/10 00:58:44;;;;;;;9.55;3.95;;;;;;;2.73;100.00;98274.94;4994960;28;20034;-74
2021/12/10 01:01:21;;;;;;;6.55;2.55;;;;;;;2.69;100.00;98279.34;4994777;28;20461;-74
2021/12/10 01:03:51;;;;;;;7.65;2.95;;;;;;;2.83;100.00;98266.88;4995215;28;20042;-73
2021/12/10 01:06:18;;;;;;;9.52;3.55;;;;;;;2.72;100.00;98263.75;4993948;28;20078;-74
2021/12/10 01:08:47;;;;;;;7.25;2.53;;;;;;;2.74;100.00;98264.56;4994652;28;20053;-73
2021/12/10 01:11:20;;;;;;;8.30;2.72;;;;;;;2.78;100.00;98270.47;4994662;28;20381;-73
2021/12/10 01:13:50;;;;;;;6.75;2.88;;;;;;;2.79;100.00;98270.44;4994783;28;20030;-73
2021/12/10 01:24:50;;;;;;;5.55;1.85;;;;;;;2.84;100.00;98245.31;4994719;28;20041;-74
2021/12/10 01:27:33;;;;;;;6.07;2.47;;;;;;;2.91;100.00;98240.81;4994376;28;20031;-73
2021/12/10 01:30:13;;;;;;;7.40;2.83;;;;;;;2.89;100.00;98229.66;4994603;28;20031;-74
2021/12/10 01:32:44;;;;;;;6.95;2.80;;;;;;;2.84;100.00;98221.22;4994700;28;20121;-73
2021/12/10 01:35:12;;;;;;;6.68;1.95;;;;;;;2.87;100.00;98224.53;4994572;28;20031;-75
2021/12/10 01:37:37;;;;;;;6.75;2.67;;;;;;;2.87;100.00;98228.88;4994176;28;20026;-74
2021/12/10 01:40:06;;;;;;;4.40;2.03;;;;;;;2.88;100.00;98205.56;4994508;28;20503;-74
2021/12/10 01:42:42;;;;;;;7.32;3.10;;;;;;;2.85;100.00;98202.22;4994319;28;20249;-75
2021/12/10 01:45:19;;;;;;;6.40;2.50;;;;;;;2.79;100.00;98210.16;4994243;28;20026;-75
2021/12/10 01:47:45;;;;;;;;;;;;;;;2.87;100.00;98206.47;4994825;28;20069;-75
2021/12/10 01:50:11;;;;;;;5.35;2.10;;;;;;;2.74;100.00;98212.88;4994108;28;20032;-75
2021/12/10 01:52:37;;;;;;;5.75;2.63;;;;;;;2.79;100.00;98216.19;4994324;28;20058;-75
2021/12/10 01:55:05;;;;;;;6.63;2.63;;;;;;;2.80;100.00;98204.09;4994179;28;20057;-75
2021/12/10 01:57:35;;;;;;;4.88;2.20;;;;;;;2.79;100.00;98200.69;4994136;28;20099;-74
2021/12/10 02:00:06;;;;;;;4.47;1.88;;;;;;;2.78;100.00;98193.81;5009155;28;20041;-75
2021/12/10 02:02:35;;;;;;;6.47;2.92;;;;;;;2.70;100.00;98190.63;4993976;28;20176;-74
2021/12/10 02:05:03;;;;;;;7.05;2.35;;;;;;;2.70;100.00;98190.63;4994407;28;20385;-74
2021/12/10 02:07:28;;;;;;;5.03;2.30;;;;;;;2.68;100.00;98193.25;4993830;28;20465;-74
2021/12/10 02:09:54;;;;;;;5.47;2.95;;;;;;;2.72;100.00;98180.25;4993965;28;20048;-74
2021/12/10 02:12:20;;;;;;;;;;;;;;;2.78;100.00;98185.22;5009126;28;20041;-75
2021/12/10 02:14:51;;;;;;;6.28;2.65;;;;;;;2.63;100.00;98184.78;4993252;28;19910;-74
2021/12/10 02:17:16;;;;;;;6.60;2.28;;;;;;;2.71;100.00;98188.88;4993689;28;20468;-75
2021/12/10 02:19:42;;;;;;;7.28;3.42;;;;;;;2.60;100.00;98184.06;4993735;28;20069;-75
2021/12/10 02:22:07;;;;;;;4.65;2.10;;;;;;;2.42;100.00;98187.19;4993416;28;20062;-76
2021/12/10 02:24:34;;;;;;;6.03;1.85;;;;;;;2.45;100.00;98180.19;4993762;28;20062;-76
2021/12/10 02:27:03;;;;;;;9.68;2.58;;;;;;;2.42;100.00;98177.72;5008854;28;20045;-74
2021/12/10 02:29:31;;;;;;;5.20;1.98;;;;;;;2.47;100.00;98162.94;4993599;28;20032;-74
2021/12/10 02:31:56;;;;;;;5.43;2.13;;;;;;;2.45;100.00;98159.56;4993661;28;20042;-75
2021/12/10 02:34:24;;;;;;;4.25;1.92;;;;;;;2.38;100.00;98158.03;4992457;28;20030;-74
2021/12/10 02:36:50;;;;;;;6.43;2.10;;;;;;;2.50;100.00;98143.91;4993650;28;20038;-74
2021/12/10 02:39:19;;;;;;;7.13;2.15;;;;;;;2.41;100.00;98132.13;4993458;28;20543;-74
2021/12/10 02:41:45;;;;;;;7.45;2.47;;;;;;;2.55;100.00;98142.03;4993179;28;20437;-76
2021/12/10 02:44:14;;;;;;;5.72;1.85;;;;;;;2.48;100.00;98131.06;4993227;28;20101;-74
2021/12/10 02:46:39;;;;;;;5.00;1.70;;;;;;;2.46;100.00;98125.09;4993568;28;20241;-74
2021/12/10 02:49:07;;;;;;;3.85;1.60;;;;;;;2.49;100.00;98119.00;4993572;28;20134;-75
2021/12/10 02:51:35;;;;;;;5.30;1.83;;;;;;;2.44;100.00;98118.28;4993230;28;20034;-74
2021/12/10 02:54:03;;;;;;;4.03;1.75;;;;;;;2.41;100.00;98119.22;4992288;28;20045;-74
2021/12/10 02:56:28;;;;;;;6.15;1.88;;;;;;;2.42;100.00;98109.75;4993546;28;20037;-75
2021/12/10 02:58:59;;;;;;;5.38;2.33;;;;;;;2.40;100.00;98099.47;4993303;28;20023;-75
2021/12/10 03:01:36;;;;;;;5.90;1.98;;;;;;;2.35;100.00;98085.84;4993484;28;20089;-74
2021/12/10 03:04:03;;;;;;;4.93;1.77;;;;;;;2.38;100.00;98092.66;4993473;28;20108;-75
2021/12/10 03:06:30;;;;;;;3.10;1.30;;;;;;;2.34;100.00;98100.50;4992392;28;20505;-75
2021/12/10 03:08:58;;;;;;;3.35;1.45;;;;;;;2.28;100.00;98081.75;4992030;28;20058;-74
2021/12/10 03:11:30;;;;;;;7.18;1.85;;;;;;;2.28;100.00;98071.44;4992097;28;20041;-75
2021/12/10 03:13:56;;;;;;;4.55;1.70;;;;;;;2.24;100.00;98059.50;4993250;28;20089;-76
2021/12/10 03:16:22;;;;;;;4.05;1.58;;;;;;;2.23;100.00;98058.66;4953828;28;20053;-74
2021/12/10 03:18:49;;;;;;;5.53;1.90;;;;;;;2.26;100.00;98052.56;4993216;28;20433;-74
2021/12/10 03:21:15;;;;;;;8.30;1.83;;;;;;;2.22;100.00;98048.44;4993315;28;20034;-75
2021/12/10 03:23:44;;;;;;;6.57;1.55;;;;;;;2.20;100.00;98045.03;4993188;28;20031;-75
2021/12/10 03:26:11;;;;;;;5.25;2.13;;;;;;;2.21;100.00;98041.56;4996306;28;20057;-74
2021/12/10 03:28:39;;;;;;;4.50;2.20;;;;;;;2.23;100.00;98034.59;4997219;28;20030;-75
2021/12/10 03:31:05;;;;;;;4.45;1.60;;;;;;;2.19;100.00;98031.28;4996510;28;20069;-74
2021/12/10 03:33:31;;;;;;;6.88;1.92;;;;;;;2.19;100.00;98027.88;4996672;28;20034;-74
2021/12/10 03:35:56;;;;;;;4.97;1.33;;;;;;;2.19;100.00;98020.13;4996640;28;20446;-75
2021/12/10 03:38:25;;;;;;;4.95;1.67;;;;;;;2.24;100.00;98016.47;4995632;28;20030;-74
2021/12/10 03:40:51;;;;;;;4.50;1.15;;;;;;;2.28;100.00;98018.06;4995307;28;20022;-75
2021/12/10 03:43:17;;;;;;;;;;;;;;;2.26;100.00;98022.44;4997022;28;20038;-76
2021/12/10 03:45:49;;;;;;;3.78;1.55;;;;;;;2.24;100.00;98013.06;4996509;28;19932;-75
2021/12/10 03:48:19;;;;;;;4.65;1.20;;;;;;;2.18;100.00;98008.97;4996803;28;20357;-76
2021/12/10 03:50:46;;;;;;;3.33;1.30;;;;;;;2.17;100.00;98002.13;4996175;28;20038;-73
2021/12/10 03:53:13;;;;;;;5.30;1.35;;;;;;;2.15;100.00;97996.16;4996620;28;20045;-74
2021/12/10 03:55:39;;;;;;;4.15;1.55;;;;;;;2.17;100.00;97999.53;4994964;28;20085;-73
2021/12/10 03:58:05;;;;;;;2.25;1.00;;;;;;;2.20;100.00;97988.28;4996474;28;20038;-73
2021/12/10 04:00:34;;;;;;;2.97;1.23;;;;;;;2.20;100.00;97983.09;4996212;28;20484;-73
2021/12/10 04:03:01;;;;;;;4.95;1.10;;;;;;;2.21;100.00;97974.47;4996026;28;20137;-73
2021/12/10 04:05:27;;;;;;;3.53;1.67;;;;;;;2.16;100.00;97971.19;4996248;28;20462;-72
2021/12/10 04:07:53;;;;;;;4.22;1.25;;;;;;;2.20;100.00;97967.63;5011424;28;20057;-72
2021/12/10 04:10:20;;;;;;;3.30;1.25;;;;;;;2.19;100.00;97959.03;4996360;28;20065;-73
2021/12/10 04:12:46;;;;;;;3.83;1.15;;;;;;;2.21;100.00;97959.00;4995729;28;20026;-73
2021/12/10 04:15:18;;;;;;;4.05;1.27;;;;;;;2.20;100.00;97949.56;4995934;28;20030;-73
2021/12/10 04:17:44;;;;;;;3.50;1.17;;;;;;;2.22;100.00;97942.63;4995400;28;20092;-73
2021/12/10 04:20:11;;;;;;;3.05;1.10;;;;;;;2.20;100.00;97949.56;4995880;28;20038;-73
2021/12/10 04:22:36;;;;;;;4.20;0.98;;;;;;;2.21;100.00;97956.41;4995524;28;20034;-73
2021/12/10 04:25:06;;;;;;;3.90;1.30;;;;;;;2.20;100.00;97955.56;4995933;28;20038;-73
2021/12/10 04:27:33;;;;;;;2.05;0.80;;;;;;;2.23;100.00;97950.28;4995641;28;20477;-73
2021/12/10 04:29:59;;;;;;;2.55;1.23;;;;;;;2.25;100.00;97942.47;4994294;28;20137;-73
2021/12/10 04:32:26;;;;;;;4.43;1.10;;;;;;;2.22;100.00;97946.03;4996084;28;20041;-73
2021/12/10 04:34:52;;;;;;;3.65;0.80;;;;;;;2.22;100.00;97937.44;4995948;28;20042;-72
2021/12/10 04:37:18;;;;;;;4.25;0.90;;;;;;;2.19;100.00;97935.81;4993612;28;20044;-73
2021/12/10 04:39:48;;;;;;;3.58;0.90;;;;;;;2.21;100.00;97933.19;4995866;28;20034;-73
2021/12/10 04:42:16;;;;;;;2.22;0.80;;;;;;;2.23;100.00;97926.19;4996012;28;20042;-74
2021/12/10 04:44:42;;;;;;;3.13;0.73;;;;;;;2.22;100.00;97933.13;4995241;28;20030;-76
2021/12/10 04:47:07;;;;;;;3.90;0.70;;;;;;;2.27;100.00;97925.22;4995624;28;20056;-74
2021/12/10 04:49:32;;;;;;;1.63;0.57;;;;;;;2.27;100.00;97927.78;4995154;28;20516;-73
2021/12/10 04:51:58;;;;;;;2.28;0.80;;;;;;;2.23;100.00;97931.38;4995329;28;20030;-73
2021/12/10 04:54:26;;;;;;;2.85;0.60;;;;;;;2.25;100.00;97920.09;4995220;28;20100;-73
2021/12/10 04:56:55;;;;;;;10.07;1.00;;;;;;;2.31;100.00;97917.31;4993792;28;20496;-73
2021/12/10 04:59:21;;;;;;;3.13;1.00;;;;;;;2.36;100.00;97914.59;4995170;28;20038;-73
2021/12/10 05:01:47;;;;;;;3.00;0.63;;;;;;;2.40;100.00;97908.41;4995026;28;20049;-72
2021/12/10 05:04:13;;;;;;;1.88;0.63;;;;;;;2.32;100.00;97903.50;4995123;28;20026;-73
2021/12/10 05:06:39;;;;;;;2.70;0.80;;;;;;;2.30;100.00;97904.47;4994927;28;20038;-74
2021/12/10 05:09:08;;;;;;;1.50;0.75;;;;;;;2.34;100.00;97895.72;4995075;28;20113;-73
2021/12/10 05:11:35;;;;;;;2.05;0.60;;;;;;;2.37;100.00;97887.88;4994665;28;20096;-74
2021/12/10 05:14:00;;;;;;;2.63;1.02;;;;;;;2.37;100.00;97872.38;4995152;28;20034;-73
2021/12/10 05:16:27;;;;;;;2.28;1.05;;;;;;;2.33;100.00;97878.53;4951429;28;20412;-73
2021/12/10 05:18:59;;;;;;;1.88;1.00;;;;;;;2.32;100.00;97871.69;4992295;28;20448;-73
2021/12/10 05:21:27;;;;;;;6.63;1.40;;;;;;;2.34;100.00;97872.50;4995107;28;20046;-74
2021/12/10 05:23:53;;;;;;;2.40;0.68;;;;;;;2.31;100.00;97867.44;4994559;28;20040;-73
2021/12/10 05:26:19;;;;;;;2.58;0.73;;;;;;;2.28;100.00;97860.63;4994459;28;20389;-74
2021/12/10 05:28:44;;;;;;;3.10;0.90;;;;;;;2.23;100.00;97859.09;4994701;28;20061;-74
2021/12/10 05:31:10;;;;;;;4.70;0.57;;;;;;;2.18;100.00;97846.38;4994089;28;20074;-74
2021/12/10 05:33:35;;;;;;;1.90;0.70;;;;;;;2.25;100.00;97844.41;4994133;28;20109;-73
2021/12/10 05:36:05;;;;;;;5.93;0.90;;;;;;;2.30;100.00;97839.94;4993052;28;20030;-74
2021/12/10 05:38:31;;;;;;;6.57;1.27;;;;;;;2.30;100.00;97835.63;4994498;28;20070;-73
2021/12/10 05:40:58;;;;;;;1.60;0.70;;;;;;;2.32;100.00;97835.56;4993087;28;20092;-73
2021/12/10 05:43:24;;;;;;;1.85;1.05;;;;;;;2.36;100.00;97831.97;4992977;28;20432;-74
2021/12/10 05:45:50;;;;;;;2.88;1.27;;;;;;;2.31;100.00;97829.56;4994057;28;20117;-74
2021/12/10 05:48:17;;;;;;;1.88;0.60;;;;;;;2.35;100.00;97828.56;4993802;28;20473;-74
2021/12/10 05:50:42;;;;;;;1.65;0.68;;;;;;;2.45;100.00;97820.50;4994171;28;20041;-74
2021/12/10 05:53:08;;;;;;;5.10;1.40;;;;;;;2.42;100.00;97808.53;4993945;28;20038;-74
2021/12/10 05:55:35;;;;;;;1.98;1.20;;;;;;;2.38;100.00;97801.78;4994239;28;20058;-73
2021/12/10 05:58:00;;;;;;;5.75;1.15;;;;;;;2.37;100.00;97791.53;4994005;28;20034;-74
2021/12/10 06:00:32;;;;;;;5.95;1.30;;;;;;;2.39;100.00;97802.63;4994110;28;20436;-74
2021/12/10 06:02:58;;;;;;;3.13;1.00;;;;;;;2.40;100.00;97800.00;4994034;28;20440;-73
2021/12/10 06:05:23;;;;;;;;;;;;;;;2.35;100.00;97795.00;4994249;28;20117;-73
2021/12/10 06:07:49;;;;;;;3.97;1.17;;;;;;;2.33;100.00;97796.78;4993882;28;20003;-73
2021/12/10 06:10:17;;;;;;;3.35;1.30;;;;;;;2.36;100.00;97795.84;4993799;28;20030;-73
2021/12/10 06:12:44;;;;;;;2.80;1.00;;;;;;;2.37;100.00;97794.94;4993771;28;20038;-74
2021/12/10 06:15:11;;;;;;;5.68;0.75;;;;;;;2.45;100.00;97802.41;4993787;28;20066;-73
2021/12/10 06:17:37;;;;;;;2.28;0.88;;;;;;;2.41;100.00;97788.78;4993652;28;20054;-72
2021/12/10 06:20:08;;;;;;;2.70;0.77;;;;;;;2.38;100.00;97796.63;4992423;28;20479;-74
2021/12/10 06:22:34;;;;;;;3.53;0.93;;;;;;;2.42;100.00;97781.88;4993489;28;20030;-74
2021/12/10 06:25:00;;;;;;;2.47;0.88;;;;;;;2.39;100.00;97779.41;4993624;28;20385;-75
2021/12/10 06:27:28;;;;;;;3.47;1.17;;;;;;;2.44;100.00;97777.50;4993383;28;20031;-75
2021/12/10 06:29:54;;;;;;;2.72;1.00;;;;;;;2.47;100.00;97779.97;4993708;28;20041;-75
2021/12/10 06:32:19;;;;;;;3.92;1.42;;;;;;;2.42;100.00;97772.38;4994026;28;20045;-75
2021/12/10 06:34:45;;;;;;;5.23;1.70;;;;;;;2.43;100.00;97770.66;4993773;28;20038;-75
2021/12/10 06:37:10;;;;;;;3.20;1.23;;;;;;;2.46;100.00;97763.63;4992044;28;20305;-75
2021/12/10 06:39:36;;;;;;;2.80;0.90;;;;;;;2.44;100.00;97762.00;4993347;28;20065;-76
2021/12/10 06:42:03;;;;;;;3.40;1.65;;;;;;;2.51;100.00;97768.63;4993271;28;20118;-75
2021/12/10 06:44:29;;;;;;;2.58;1.02;;;;;;;2.55;100.00;97762.47;4993516;28;20556;-74
2021/12/10 06:46:54;;;;;;;7.97;2.15;;;;;;;2.59;100.00;97762.28;4993200;28;20030;-74
2021/12/10 06:49:20;;;;;;;2.15;0.88;;;;;;;2.54;100.00;97766.78;4992970;28;20038;-74
2021/12/10 06:51:46;;;;;;;7.70;1.35;;;;;;;2.60;100.00;97765.72;4993071;28;20026;-75
2021/12/10 06:54:11;;;;;;;3.03;1.00;;;;;;;2.52;100.00;97766.00;5008087;28;20398;-74
2021/12/10 06:56:38;;;;;;;2.50;0.93;;;;;;;2.48;100.00;97767.00;4991860;28;20111;-75
2021/12/10 06:59:04;;;;;;;;;;;;;;;2.50;100.00;97764.38;4992278;28;20532;-75
2021/12/10 07:01:33;;;;;;;6.85;1.50;;;;;;;2.49;100.00;97762.69;4995834;28;19910;-75
2021/12/10 07:04:00;;;;;;;5.93;1.00;;;;;;;2.45;100.00;97764.53;4997324;28;20038;-75
2021/12/10 07:06:27;;;;;;;8.27;1.60;;;;;;;2.41;100.00;97772.44;4996537;28;20046;-76
2021/12/10 07:08:55;;;;;;;4.45;0.93;;;;;;;2.45;100.00;97766.28;4996796;28;20121;-75
2021/12/10 07:11:22;;;;;;;2.63;1.08;;;;;;;2.46;100.00;97767.97;4997034;28;20068;-76
2021/12/10 07:13:51;;;;;;;6.22;1.80;;;;;;;2.44;100.00;97768.00;4997090;28;20035;-76
2021/12/10 07:16:20;;;;;;;6.50;0.90;;;;;;;2.43;100.00;97761.16;4996508;28;20026;-76
2021/12/10 07:18:45;;;;;;;5.38;0.90;;;;;;;2.44;100.00;97755.09;4996472;28;20037;-75
2021/12/10 07:21:11;;;;;;;6.75;1.35;;;;;;;2.41;100.00;97744.91;4996462;28;20034;-75
2021/12/10 07:23:37;;;;;;;2.85;1.17;;;;;;;2.39;100.00;97753.59;4966233;28;20089;-75
2021/12/10 07:26:04;;;;;;;5.57;1.45;;;;;;;2.35;100.00;97755.44;4992976;28;20049;-75
2021/12/10 07:28:30;;;;;;;2.17;0.57;;;;;;;2.34;100.00;97757.19;4996180;28;20492;-74
2021/12/10 07:30:55;;;;;;;1.45;0.63;;;;;;;2.37;100.00;97755.38;4996234;28;20085;-75
2021/12/10 07:33:21;;;;;;;2.78;1.02;;;;;;;2.34;100.00;97744.28;4996197;28;20030;-75
2021/12/10 07:35:48;;;;;;;3.05;0.95;;;;;;;2.33;100.00;97758.06;4996389;28;20034;-75
2021/12/10 07:38:15;;;;;;;2.88;0.55;;;;;;;2.34;100.00;97757.19;4996571;28;20038;-75
2021/12/10 07:40:40;;;;;;;;;;;;;;;2.39;100.00;97753.59;4996395;28;20481;-76
2021/12/10 07:43:07;;;;;;;2.38;0.75;;;;;;;2.32;100.00;97761.53;4995101;28;19916;-75
2021/12/10 07:45:34;;;;;;;4.22;1.38;;;;;;;2.37;100.00;97758.81;4996192;28;20421;-76
2021/12/10 07:48:03;;;;;;;3.40;1.23;;;;;;;2.37;100.00;97747.63;4996421;28;20172;-75
2021/12/10 07:50:33;;;;;;;4.85;1.30;;;;;;;2.37;100.00;97745.06;4996404;28;20081;-76
2021/12/10 07:52:59;;;;;;;2.00;0.80;;;;;;;2.36;100.00;97746.78;4996408;28;20397;-76
2021/12/10 07:55:26;;;;;;;;;;;;;;;2.37;100.00;97745.06;4996059;28;20165;-75
2021/12/10 07:57:52;;;;;;;1.80;0.80;;;;;;;2.38;100.00;97749.31;4995514;28;19921;-75
2021/12/10 08:00:20;;;;;;;6.45;1.10;;;;;;;2.43;100.00;97745.69;4996217;28;20034;-74
2021/12/10 08:02:46;;;;;;;2.85;0.80;;;;;;;2.48;100.00;97745.50;4994655;28;20028;-74
2021/12/10 08:05:13;;;;;;;6.15;1.08;;;;;;;2.47;100.00;97755.00;4995321;28;20105;-74
2021/12/10 08:07:38;;;;;;;2.88;1.13;;;;;;;2.47;100.00;97756.75;4995787;28;20048;-74
2021/12/10 08:10:05;;;;;;;3.95;1.13;;;;;;;2.50;100.00;97747.13;4995289;28;20026;-74
2021/12/10 08:12:31;;;;;;;2.72;0.80;;;;;;;2.48;100.00;97764.44;4993041;28;20532;-75
2021/12/10 08:14:56;;;;;;;4.40;1.17;;;;;;;2.54;100.00;97756.47;4994985;28;20069;-75
2021/12/10 08:17:24;;;;;;;3.30;0.90;;;;;;;2.47;100.00;97754.16;4995105;28;20082;-75
2021/12/10 08:19:50;;;;;;;2.85;0.85;;;;;;;2.50;100.00;97759.22;4994255;28;20053;-76
2021/12/10 08:22:16;;;;;;;2.90;1.08;;;;;;;2.51;100.00;97766.06;4994100;28;20121;-77
2021/12/10 08:24:41;;;;;;;5.20;1.70;;;;;;;2.57;100.00;97758.94;4995409;28;20028;-76
2021/12/10 08:27:08;;;;;;;2.40;0.73;;;;;;;2.55;100.00;97759.88;4995768;28;20042;-76
2021/12/10 08:29:34;;;;;;;2.40;0.77;;;;;;;2.59;100.00;97745.97;4995226;28;20118;-76
2021/12/10 08:32:00;;;;;;;4.82;0.80;;;;;;;2.60;100.00;97747.66;4995302;28;20459;-76
2021/12/10 08:34:26;;;;;;;2.97;1.13;;;;;;;2.65;100.00;97732.78;4995348;28;20117;-76
2021/12/10 08:36:51;;;;;;;2.35;1.23;;;;;;;2.59;100.00;97738.22;4995271;28;20180;-76
2021/12/10 08:39:16;;;;;;;3.15;0.68;;;;;;;2.62;100.00;97733.75;4994870;28;20114;-75
2021/12/10 08:41:42;;;;;;;1.67;0.80;;;;;;;2.61;100.00;97731.22;5010097;28;20030;-77
2021/12/10 08:44:09;;;;;;;2.50;0.70;;;;;;;2.68;100.00;97723.19;4994831;28;20585;-76
2021/12/10 08:46:36;;;;;;;3.30;0.82;;;;;;;2.66;100.00;97725.00;4994881;28;20038;-76
2021/12/10 08:49:05;;;;;;;4.05;1.20;;;;;;;2.69;100.00;97731.78;4993895;28;20108;-77
2021/12/10 08:51:38;;;;;;;2.05;0.73;;;;;;;2.66;100.00;97721.56;4995353;28;20483;-76
2021/12/10 08:54:31;;;;;;;2.10;0.95;;;;;;;2.68;100.00;97720.59;4994023;28;20082;-76
2021/12/10 08:56:57;;;;;;;2.22;1.20;;;;;;;2.71;100.00;97717.06;5007057;28;20045;-76
2021/12/10 08:59:24;;;;;;;4.03;0.95;;;;;;;2.70;100.00;97730.88;4994597;28;20101;-76
2021/12/10 09:01:56;;;;;;;1.67;0.65;;;;;;;2.77;100.00;97732.34;4995296;28;20494;-76
2021/12/10 09:04:23;;;;;;;1.75;1.17;;;;;;;2.86;100.00;97734.56;4995271;28;20037;-76
2021/12/10 09:06:55;;;;;;;1.40;0.60;;;;;;;2.94;100.00;97729.94;4993631;28;20045;-75
2021/12/10 09:09:22;;;;;;;3.50;0.70;;;;;;;3.06;100.00;97743.28;4995105;28;20085;-76
2021/12/10 09:11:52;;;;;;;3.13;1.05;;;;;;;3.12;100.00;97730.94;4994548;28;20031;-77
2021/12/10 09:14:19;;;;;;;5.45;1.10;;;;;;;3.16;100.00;97737.69;4994856;28;20030;-75
2021/12/10 09:16:45;;;;;;;3.47;1.00;;;;;;;3.21;100.00;97732.34;4953932;28;20051;-76
2021/12/10 09:19:14;;;;;;;4.75;1.25;;;;;;;3.25;100.00;97723.56;4994550;28;20031;-76
2021/12/10 09:21:50;;;;;;;1.55;0.50;;;;;;;3.17;100.00;97726.44;4993160;28;20034;-76
2021/12/10 09:24:18;;;;;;;2.33;0.73;;;;;;;3.29;100.00;97744.06;4994091;28;20038;-76
2021/12/10 09:26:48;;;;;;;2.42;0.93;;;;;;;3.28;100.00;97746.69;4994414;28;20037;-76
2021/12/10 09:29:15;;;;;;;1.88;0.60;;;;;;;3.30;99.88;97730.22;4994297;28;20062;-76
2021/12/10 09:31:42;;;;;;;3.42;1.00;;;;;;;3.36;100.00;97737.72;4994156;28;20109;-76
2021/12/10 09:34:10;;;;;;;5.45;0.88;;;;;;;3.40;100.00;97735.84;5009880;28;20038;-78
2021/12/10 09:36:36;;;;;;;4.28;1.25;;;;;;;3.43;100.00;97733.13;4996180;28;20121;-78
2021/12/10 09:39:04;;;;;;;2.95;0.73;;;;;;;3.44;98.73;97741.72;4994973;28;20132;-76
2021/12/10 09:41:30;;;;;;;7.80;1.67;;;;;;;3.45;99.48;97731.31;4993027;28;20038;-76
2021/12/10 09:43:55;;;;;;;7.95;0.77;;;;;;;3.45;99.26;97726.16;4994787;28;20109;-76
2021/12/10 09:46:21;;;;;;;2.00;0.83;;;;;;;3.51;97.16;97727.66;4993863;28;20042;-76
2021/12/10 09:48:47;;;;;;;4.95;0.95;;;;;;;3.47;96.99;97726.94;4994188;28;20033;-76
2021/12/10 09:51:17;;;;;;;1.25;0.73;;;;;;;3.51;96.69;97725.06;4994347;28;20105;-76
2021/12/10 09:53:46;;;;;;;3.00;0.98;;;;;;;3.54;96.34;97724.94;4994174;28;20184;-76
2021/12/10 09:56:14;;;;;;;2.03;0.70;;;;;;;3.61;96.39;97726.38;5009240;28;20461;-76
2021/12/10 09:58:40;;;;;;;2.75;0.80;;;;;;;3.66;96.05;97725.28;4993658;28;20084;-75
2021/12/10 10:01:14;;;;;;;4.13;2.13;;;;;;;3.66;95.22;97729.59;4993752;28;20042;-75
2021/12/10 10:03:44;;;;;;;2.80;1.42;;;;;;;3.66;95.06;97730.44;4993888;28;20077;-76
2021/12/10 10:06:11;;;;;;;2.75;1.02;;;;;;;3.73;94.84;97725.00;4993878;28;20124;-76
2021/12/10 10:08:38;;;;;;;2.90;0.90;;;;;;;3.75;95.66;97720.59;4993664;28;20038;-76
2021/12/10 10:11:12;;;;;;;2.22;0.60;;;;;;;3.81;95.89;97717.75;4993854;28;20080;-76
2021/12/10 10:13:40;;;;;;;1.65;0.55;;;;;;;3.88;94.22;97711.41;4993142;28;20110;-76
2021/12/10 10:16:07;;;;;;;4.00;0.85;;;;;;;3.93;95.16;97702.56;4992590;28;20461;-77
2021/12/10 10:18:35;;;;;;;2.05;0.63;;;;;;;3.88;94.20;97698.47;4992286;28;20049;-76
2021/12/10 10:21:07;;;;;;;2.97;1.00;;;;;;;3.81;94.03;97699.66;4992249;28;20045;-76
2021/12/10 10:23:34;;;;;;;3.30;0.85;;;;;;;3.83;94.14;97695.25;4994504;28;20035;-76
2021/12/10 10:26:04;;;;;;;3.33;1.20;;;;;;;3.76;93.52;97696.41;4993391;28;20030;-76
2021/12/10 10:28:30;;;;;;;3.25;1.30;;;;;;;3.79;94.27;97697.13;4992642;28;20097;-76
2021/12/10 10:31:02;;;;;;;2.60;0.70;;;;;;;3.77;92.65;97703.25;4993312;28;20416;-77
2021/12/10 10:33:32;;;;;;;2.22;1.08;;;;;;;3.77;92.71;97692.91;4992397;28;20441;-76
2021/12/10 10:36:06;;;;;;;3.63;1.17;;;;;;;3.86;93.01;97697.69;5008105;28;20046;-77
2021/12/10 10:38:33;;;;;;;4.45;0.82;;;;;;;3.93;93.33;97691.34;4993171;28;20452;-77
2021/12/10 10:41:05;;;;;;;2.50;0.73;;;;;;;3.96;93.28;97696.41;4993219;28;20109;-76
2021/12/10 10:43:32;;;;;;;4.82;1.08;;;;;;;3.87;92.47;97691.63;5008430;28;20033;-75
2021/12/10 10:45:58;;;;;;;5.50;1.05;;;;;;;3.87;93.15;97694.22;4992326;28;20073;-76
2021/12/10 10:48:24;;;;;;;;;;;;;;;3.87;93.39;97687.28;4993470;28;20026;-76
2021/12/10 10:50:54;;;;;;;2.30;1.02;;;;;;;3.90;93.03;97684.56;4992985;28;19914;-76
2021/12/10 10:53:24;;;;;;;3.28;0.90;;;;;;;3.98;92.45;97673.88;4993420;28;20049;-76
2021/12/10 10:55:49;;;;;;;3.10;0.98;;;;;;;3.95;91.61;97674.03;4993576;28;20385;-76
2021/12/10 10:58:16;;;;;;;1.27;0.60;;;;;;;3.93;91.58;97681.00;4993534;28;20030;-76
2021/12/10 11:00:51;;;;;;;3.22;1.10;;;;;;;4.01;92.16;97684.94;4993353;28;20126;-79
2021/12/10 11:03:22;;;;;;;2.80;0.65;;;;;;;4.02;91.68;97681.44;4993401;28;20072;-76
2021/12/10 11:05:57;;;;;;;6.05;1.20;;;;;;;3.95;91.26;97681.78;4993573;28;20037;-76
2021/12/10 11:08:42;;;;;;;6.95;1.25;;;;;;;3.96;90.20;97686.88;4993625;28;20461;-76
2021/12/10 11:11:28;;;;;;;1.05;0.63;;;;;;;4.08;90.29;97684.69;4992358;28;20081;-77
2021/12/10 11:14:05;;;;;;;1.88;0.77;;;;;;;4.05;89.19;97693.41;4993057;28;20113;-76
2021/12/10 11:16:33;;;;;;;3.08;0.90;;;;;;;4.11;89.04;97687.94;4950712;28;20141;-76
2021/12/10 11:19:09;;;;;;;3.28;1.10;;;;;;;4.16;89.35;97680.81;4993227;28;20096;-76
2021/12/10 11:21:43;;;;;;;5.05;1.38;;;;;;;4.24;88.79;97691.69;4992780;28;20037;-76
2021/12/10 11:24:25;;;;;;;4.32;1.08;;;;;;;4.23;86.75;97689.16;4992934;28;20462;-76
2021/12/10 11:26:57;;;;;;;2.80;0.57;;;;;;;4.17;87.57;97692.00;4993151;28;20049;-76
2021/12/10 11:29:38;;;;;;;3.05;0.70;;;;;;;4.17;85.66;97694.59;4992663;28;20113;-77
2021/12/10 11:32:27;;;;;;;2.10;0.75;;;;;;;4.23;86.72;97692.59;4992967;28;20041;-76
2021/12/10 11:35:04;;;;;;;3.50;0.60;;;;;;;4.33;84.23;97700.78;4991412;28;20039;-77
2021/12/10 11:37:41;;;;;;;0.95;0.52;;;;;;;4.29;86.37;97697.50;4993862;28;20030;-76
2021/12/10 11:40:35;;;;;;;3.53;0.77;;;;;;;4.40;84.87;97686.66;4993888;28;20078;-77
2021/12/10 11:48:50;;;;;;;3.92;0.57;;;;;;;4.34;84.95;97681.75;4996679;28;20385;-76
2021/12/10 11:51:26;;;;;;;2.00;0.68;;;;;;;4.28;84.34;97682.88;4996613;28;20436;-77
2021/12/10 11:53:55;;;;;;;1.90;0.60;;;;;;;4.25;84.54;97688.19;4996506;28;20162;-76
2021/12/10 11:56:24;;;;;;;0.95;0.60;;;;;;;4.24;84.47;97688.25;4997063;28;20041;-77